Sturgeon Bay, WI (54235)

10:10 PM CDT on March 25, 2017 (GMT -0500)
Leif Everson Observatory | | Change Station

Elev 636 ft 44.83 °N, 87.34 °W | Updated 7 minutes ago

Light Rain
Light Rain
35.5 °F
Feels Like 28 °F
N
10.0
Wind Variable Wind from ENE
Gusts 12.0 mph

Today
High -- | Low -- °F
--% Chance of Precip.
Yesterday
High -- | Low -- °F
Precip. -- in
Pressure 30.22 in
Visibility 10.0 miles
Clouds Mostly Cloudy 700 ft
Overcast 1500 ft
Windchill 28 °F
Dew Point 35 °F
Humidity 99%
Rainfall 0.07 in
Snow Depth Not available.
6:42 AM 7:08 PM
Waning Crescent, 5% visible
METAR KSUE 260256Z AUTO 06011G17KT 10SM -RA BKN007 OVC015 02/01 A3015 RMK AO2 SLP234 P0002 60008 T00170006 58009 FZRANO
Pressure 30.22 in
Visibility 10.0 miles
Clouds Mostly Cloudy 700 ft
Overcast 1500 ft
Windchill 28 °F
Dew Point 35 °F
Humidity 99%
Rainfall 0.07 in
Snow Depth Not available.
6:42 AM 7:08 PM
Waning Crescent, 5% visible
METAR KSUE 260256Z AUTO 06011G17KT 10SM -RA BKN007 OVC015 02/01 A3015 RMK AO2 SLP234 P0002 60008 T00170006 58009 FZRANO

Get Severe Weather Alerts

Thanks for signing up!

Be on the lookout for a verification email in your inbox.

You'll start receiving the daily forecast at 8 AM.

×

10-Day Weather Forecast

Almanac

Astronomy

Mar. 25, 2017 Rise Set
Actual Time
Civil Twilight
Nautical Twilight
Astronomical Twilight
Moon
Length of Visible Light
Length of Day
Tomorrow will be .
, % of the Moon is Illuminated

Today's Extremes

State Highs State Lows

Community

WunderPhotos

Upload Photos

1,962,540 photos uploaded!

WunderBlog® & News

Nearby

Air Quality

  Air Quality AQ Index Pollutant
Not available.

Snow Depth

Station Depth Elevation

Earthquake Activity

City Distance Mag. Time & Date
Minimum magnitude displayed is 2.5.

Earthquake Activity

City Distance Mag. Time & Date
Minimum magnitude displayed is 2.5.

Coastal Water Temperatures

Place Temperature

Stations

Nearby Weather Stations

Station Location Temp. Windchill Dew Point Humidity Wind Precip. Elev Updated Type
                   

Watches & Warnings

There are currently no watches in effect.